createdAt,value
2018-08-28T00:01:51.183Z,99.90
2018-08-28T00:04:19.638Z,99.90
2018-08-28T00:06:48.223Z,99.90
2018-08-28T00:09:16.690Z,99.90
2018-08-28T00:11:45.146Z,99.90
2018-08-28T00:14:13.711Z,99.90
2018-08-28T00:16:42.153Z,99.90
2018-08-28T00:19:10.590Z,99.90
2018-08-28T00:21:39.118Z,99.90
2018-08-28T00:24:07.568Z,99.90
2018-08-28T00:26:36.027Z,99.90
2018-08-28T00:29:04.522Z,99.90
2018-08-28T00:31:33.064Z,99.90
2018-08-28T00:34:01.529Z,99.90
2018-08-28T00:36:30.006Z,99.90
2018-08-28T00:38:58.478Z,99.90
2018-08-28T00:41:26.958Z,99.90
2018-08-28T00:43:55.439Z,99.90
2018-08-28T00:46:23.942Z,99.90
2018-08-28T00:48:52.458Z,99.90
2018-08-28T00:51:20.926Z,99.90
2018-08-28T00:53:49.410Z,99.90
2018-08-28T00:56:17.894Z,99.90
2018-08-28T00:58:46.469Z,99.90
2018-08-28T01:01:14.978Z,99.90
2018-08-28T01:03:43.484Z,99.90
2018-08-28T01:06:11.998Z,99.90
2018-08-28T01:08:40.559Z,99.90
2018-08-28T01:11:09.470Z,99.90
2018-08-28T01:13:37.927Z,99.90
2018-08-28T01:16:06.439Z,99.90
2018-08-28T01:18:34.882Z,99.90
2018-08-28T01:21:03.341Z,99.90
2018-08-28T01:23:31.836Z,99.90
2018-08-28T01:26:00.338Z,99.90
2018-08-28T01:28:28.867Z,99.90
2018-08-28T01:30:57.379Z,99.90
2018-08-28T01:33:25.905Z,99.90
2018-08-28T01:35:54.514Z,99.90
2018-08-28T01:38:22.991Z,99.90
2018-08-28T01:40:51.494Z,99.90
2018-08-28T01:43:22.790Z,99.90
2018-08-28T01:45:51.757Z,99.90
2018-08-28T01:48:20.250Z,99.90
2018-08-28T01:50:48.776Z,99.90
2018-08-28T01:53:17.273Z,99.90
2018-08-28T01:55:45.757Z,99.90
2018-08-28T01:58:14.218Z,99.90
2018-08-28T02:00:42.751Z,99.90
2018-08-28T02:03:11.257Z,99.90
2018-08-28T02:05:39.746Z,99.90
2018-08-28T02:08:08.341Z,99.90
2018-08-28T02:10:36.859Z,99.90
2018-08-28T02:13:05.401Z,99.90
2018-08-28T02:15:33.966Z,99.90
2018-08-28T02:18:02.486Z,99.90
2018-08-28T02:20:30.950Z,99.90
2018-08-28T02:22:59.538Z,99.90
2018-08-28T02:25:28.031Z,99.90
2018-08-28T02:27:56.558Z,99.90
2018-08-28T02:30:25.106Z,99.90
2018-08-28T02:32:53.614Z,99.90
2018-08-28T02:35:22.090Z,99.90
2018-08-28T02:37:50.619Z,99.90
2018-08-28T02:40:19.166Z,99.90
2018-08-28T02:42:47.649Z,99.90
2018-08-28T02:45:16.226Z,99.90
2018-08-28T02:47:44.722Z,99.90
2018-08-28T02:50:13.218Z,99.90
2018-08-28T02:52:41.736Z,99.90
2018-08-28T02:55:10.314Z,99.90
2018-08-28T02:57:38.807Z,99.90
2018-08-28T03:00:07.361Z,99.90
2018-08-28T03:02:35.830Z,99.90
2018-08-28T03:05:04.499Z,99.90
2018-08-28T03:07:32.995Z,99.90
2018-08-28T03:10:01.599Z,99.90
2018-08-28T03:12:30.107Z,99.90
2018-08-28T03:14:58.619Z,99.90
2018-08-28T03:17:27.129Z,99.90
2018-08-28T03:19:55.597Z,99.90
2018-08-28T03:22:24.482Z,99.90
2018-08-28T03:24:53.018Z,99.90
2018-08-28T03:27:21.520Z,99.90
2018-08-28T03:29:50.052Z,99.90
2018-08-28T03:32:18.566Z,99.90
2018-08-28T03:34:47.141Z,99.90
2018-08-28T03:37:15.750Z,99.90
2018-08-28T03:39:44.210Z,99.90
2018-08-28T03:42:12.702Z,99.90
2018-08-28T03:44:41.212Z,99.90
2018-08-28T03:47:09.758Z,99.90
2018-08-28T03:49:38.302Z,99.90
2018-08-28T03:52:06.894Z,99.90
2018-08-28T03:54:35.434Z,99.90
2018-08-28T03:57:03.894Z,99.90
2018-08-28T03:59:32.438Z,99.90
2018-08-28T04:02:01.956Z,99.90
2018-08-28T04:04:30.446Z,99.90
2018-08-28T04:06:58.966Z,99.90
2018-08-28T04:09:27.446Z,99.90
2018-08-28T04:11:55.926Z,99.90
2018-08-28T04:14:24.450Z,99.90
2018-08-28T04:16:53.006Z,99.90
2018-08-28T04:19:21.531Z,99.90
2018-08-28T04:21:50.107Z,99.90
2018-08-28T04:24:18.631Z,99.90
2018-08-28T04:26:47.098Z,99.90
2018-08-28T04:29:15.754Z,99.90
2018-08-28T04:31:44.241Z,99.90
2018-08-28T04:34:12.684Z,99.90
2018-08-28T04:36:41.173Z,99.90
2018-08-28T04:39:09.674Z,99.90
2018-08-28T04:41:38.170Z,99.90
2018-08-28T04:44:06.698Z,99.90
2018-08-28T04:46:35.158Z,99.90
2018-08-28T04:49:03.633Z,99.90
2018-08-28T04:51:32.210Z,99.90
2018-08-28T04:54:00.686Z,99.90
2018-08-28T04:56:29.178Z,99.90
2018-08-28T04:58:57.681Z,99.90
2018-08-28T05:01:26.149Z,99.90
2018-08-28T05:03:54.666Z,99.90
2018-08-28T05:06:23.199Z,99.90
2018-08-28T05:08:51.678Z,99.90
2018-08-28T05:11:20.135Z,99.90
2018-08-28T05:13:48.730Z,99.90
2018-08-28T05:16:17.183Z,99.90
2018-08-28T05:18:45.709Z,99.90
2018-08-28T05:21:14.338Z,99.90
2018-08-28T05:23:42.847Z,99.90
2018-08-28T05:26:11.355Z,99.90
2018-08-28T05:28:39.914Z,99.90
2018-08-28T05:31:08.378Z,99.90
2018-08-28T05:33:36.875Z,99.90
2018-08-28T05:36:05.410Z,99.90
2018-08-28T05:38:33.899Z,99.90
2018-08-28T05:41:02.364Z,99.90
2018-08-28T05:43:30.910Z,99.90
2018-08-28T05:45:59.399Z,99.90
2018-08-28T05:48:27.874Z,99.90
2018-08-28T05:50:56.441Z,99.90
2018-08-28T05:53:24.930Z,99.90
2018-08-28T05:55:53.458Z,99.90
2018-08-28T05:58:21.874Z,99.90
2018-08-28T06:00:50.338Z,99.90
2018-08-28T06:03:18.932Z,99.90
2018-08-28T06:05:47.378Z,99.90
2018-08-28T06:08:15.870Z,99.90
2018-08-28T06:10:44.403Z,99.90
2018-08-28T06:13:12.934Z,99.90
2018-08-28T06:15:41.400Z,99.90
2018-08-28T06:18:10.140Z,99.90
2018-08-28T06:20:38.662Z,99.90
2018-08-28T06:23:07.187Z,99.90
2018-08-28T06:25:35.668Z,99.90
2018-08-28T06:28:04.222Z,99.90
2018-08-28T06:30:32.683Z,99.90
2018-08-28T06:33:01.145Z,99.90
2018-08-28T06:35:29.618Z,99.90
2018-08-28T06:37:58.075Z,99.90
2018-08-28T06:40:26.522Z,99.90
2018-08-28T06:42:55.076Z,99.90
2018-08-28T06:45:23.530Z,99.90
2018-08-28T06:47:51.992Z,99.90
2018-08-28T06:50:20.510Z,99.90
2018-08-28T06:52:48.938Z,99.90
2018-08-28T06:55:17.414Z,99.90
2018-08-28T06:57:45.910Z,99.90
2018-08-28T07:00:14.362Z,99.90
2018-08-28T07:02:42.809Z,99.90
2018-08-28T07:05:11.435Z,99.90
2018-08-28T07:07:40.014Z,99.90
2018-08-28T07:10:09.693Z,99.90
2018-08-28T07:12:38.184Z,99.90
2018-08-28T07:15:06.695Z,99.90
2018-08-28T07:17:35.139Z,99.90
2018-08-28T07:20:03.694Z,99.90
2018-08-28T07:22:32.178Z,99.90
2018-08-28T07:25:00.670Z,99.90
2018-08-28T07:27:29.186Z,99.90
2018-08-28T07:29:57.669Z,99.90
2018-08-28T07:32:26.142Z,99.90
2018-08-28T07:34:54.775Z,99.90
2018-08-28T07:37:23.315Z,99.90
2018-08-28T07:39:51.763Z,99.90
2018-08-28T07:42:20.322Z,99.90
2018-08-28T07:44:48.885Z,99.90
2018-08-28T07:47:17.344Z,99.90
2018-08-28T07:49:45.847Z,99.90
2018-08-28T07:52:14.390Z,99.90
2018-08-28T07:54:42.962Z,99.90
2018-08-28T07:57:11.442Z,99.90
2018-08-28T07:59:39.911Z,99.90
2018-08-28T08:02:08.449Z,99.90
2018-08-28T08:04:37.269Z,99.90
2018-08-28T08:07:06.090Z,99.90
2018-08-28T08:09:34.559Z,99.90
2018-08-28T08:12:03.093Z,99.90
2018-08-28T08:14:31.554Z,99.90
2018-08-28T08:17:00.114Z,99.90
2018-08-28T08:19:28.570Z,99.90
2018-08-28T08:21:57.068Z,99.90
2018-08-28T08:24:25.526Z,99.90
2018-08-28T08:26:54.040Z,99.90
2018-08-28T08:29:22.565Z,99.90
2018-08-28T08:31:51.032Z,99.90
2018-08-28T08:34:19.539Z,99.90
2018-08-28T08:36:48.018Z,99.90
2018-08-28T08:39:16.474Z,99.90
2018-08-28T08:41:44.977Z,99.90
2018-08-28T08:44:13.530Z,99.90
2018-08-28T08:46:41.967Z,99.90
2018-08-28T08:49:10.787Z,99.90
2018-08-28T08:51:39.254Z,99.90
2018-08-28T08:54:07.719Z,99.90
2018-08-28T08:56:36.194Z,99.90
2018-08-28T08:59:04.703Z,99.90
2018-08-28T09:01:33.166Z,99.90
2018-08-28T09:04:01.890Z,99.90
2018-08-28T09:06:30.467Z,99.90
2018-08-28T09:08:59.094Z,99.90
2018-08-28T09:11:27.732Z,99.90
2018-08-28T09:13:56.238Z,99.90
2018-08-28T09:16:24.897Z,99.90
2018-08-28T09:18:53.473Z,99.90
2018-08-28T09:21:21.942Z,99.90
2018-08-28T09:23:50.430Z,99.90
2018-08-28T09:26:19.039Z,99.90
2018-08-28T09:28:48.002Z,99.00
2018-08-28T09:31:18.670Z,99.50
2018-08-28T09:33:51.285Z,98.70
2018-08-28T09:36:22.949Z,97.70
2018-08-28T09:38:51.595Z,96.00
2018-08-28T09:44:33.393Z,94.00
2018-08-28T09:47:01.961Z,93.80
2018-08-28T09:49:30.495Z,95.50
2018-08-28T09:51:59.003Z,96.80
2018-08-28T09:54:27.550Z,94.30
2018-08-28T09:56:56.234Z,94.30
2018-08-28T09:59:24.708Z,94.20
2018-08-28T10:01:53.222Z,93.90
2018-08-28T10:04:22.010Z,93.40
2018-08-28T10:06:50.486Z,93.30
2018-08-28T10:09:19.290Z,93.10
2018-08-28T10:11:52.016Z,92.10
2018-08-28T10:14:20.510Z,93.10
2018-08-28T10:16:49.078Z,94.30
2018-08-28T10:19:17.582Z,93.60
2018-08-28T10:21:46.076Z,93.20
2018-08-28T10:24:14.533Z,93.60
2018-08-28T10:26:42.990Z,94.20
2018-08-28T10:29:13.708Z,93.30
2018-08-28T10:31:42.204Z,92.50
2018-08-28T10:34:10.664Z,92.80
2018-08-28T10:36:39.178Z,91.80
2018-08-28T10:39:09.105Z,90.80
2018-08-28T10:41:37.577Z,91.20
2018-08-28T10:44:06.099Z,90.90
2018-08-28T10:46:34.766Z,91.40
2018-08-28T10:49:03.226Z,90.50
2018-08-28T10:51:31.869Z,90.80
2018-08-28T10:54:00.482Z,90.70
2018-08-28T10:56:28.918Z,90.50
2018-08-28T10:58:57.446Z,90.80
2018-08-28T11:01:25.878Z,90.40
2018-08-28T11:03:54.304Z,90.40
2018-08-28T11:06:22.841Z,90.50
2018-08-28T11:08:51.361Z,90.10
2018-08-28T11:11:19.833Z,88.30
2018-08-28T11:13:48.335Z,88.50
2018-08-28T11:16:16.831Z,90.20
2018-08-28T11:18:45.566Z,90.40
2018-08-28T11:21:14.115Z,90.20
2018-08-28T11:23:42.578Z,90.50
2018-08-28T11:26:11.058Z,90.30
2018-08-28T11:28:39.580Z,90.70
2018-08-28T11:31:08.116Z,91.00
2018-08-28T11:33:36.567Z,90.70
2018-08-28T11:36:06.258Z,90.90
2018-08-28T11:38:34.789Z,91.00
2018-08-28T11:41:03.216Z,91.70
2018-08-28T11:43:31.740Z,91.90
2018-08-28T11:46:00.225Z,91.70
2018-08-28T11:48:28.727Z,92.00
2018-08-28T11:50:57.270Z,91.70
2018-08-28T11:53:25.738Z,91.90
2018-08-28T11:55:54.196Z,91.90
2018-08-28T11:58:22.747Z,92.70
2018-08-28T12:00:51.216Z,93.50
2018-08-28T12:03:19.716Z,92.40
2018-08-28T12:05:48.474Z,92.30
2018-08-28T12:08:16.966Z,92.00
2018-08-28T12:10:45.438Z,92.40
2018-08-28T12:13:14.036Z,93.30
2018-08-28T12:15:42.465Z,92.20
2018-08-28T12:18:11.025Z,91.50
2018-08-28T12:20:39.551Z,91.30
2018-08-28T12:23:08.008Z,91.20
2018-08-28T12:25:36.506Z,91.40
2018-08-28T12:28:05.266Z,91.40
2018-08-28T12:30:33.740Z,91.70
2018-08-28T12:33:02.268Z,91.10
2018-08-28T12:35:30.843Z,90.50
2018-08-28T12:37:59.299Z,91.10
2018-08-28T12:40:27.860Z,91.30
2018-08-28T12:42:56.336Z,90.40
2018-08-28T12:45:24.967Z,90.20
2018-08-28T12:47:53.865Z,88.60
2018-08-28T12:50:22.345Z,89.50
2018-08-28T12:52:50.818Z,88.00
2018-08-28T12:55:19.331Z,87.80
2018-08-28T12:57:47.796Z,89.00
2018-08-28T13:00:16.374Z,88.50
2018-08-28T13:02:44.987Z,88.90
2018-08-28T13:05:13.455Z,90.50
2018-08-28T13:07:41.918Z,91.00
2018-08-28T13:10:10.548Z,91.20
2018-08-28T13:12:39.020Z,91.80
2018-08-28T13:15:07.530Z,92.70
2018-08-28T13:17:36.064Z,93.20
2018-08-28T13:20:12.226Z,93.60
2018-08-28T13:22:40.855Z,94.10
2018-08-28T13:25:10.195Z,94.30
2018-08-28T13:27:38.603Z,94.70
2018-08-28T13:30:08.615Z,94.80
2018-08-28T13:32:37.416Z,95.00
2018-08-28T13:35:14.540Z,95.50
2018-08-28T13:37:43.150Z,95.10
2018-08-28T13:40:12.158Z,93.50
2018-08-28T13:42:40.709Z,93.20
2018-08-28T13:45:09.867Z,93.10
2018-08-28T13:47:38.332Z,92.50
2018-08-28T13:50:07.898Z,93.00
2018-08-28T13:52:36.330Z,93.10
2018-08-28T13:55:05.791Z,92.50
2018-08-28T13:57:34.298Z,92.20
2018-08-28T14:00:02.828Z,91.80
2018-08-28T14:02:31.381Z,91.50
2018-08-28T14:04:59.875Z,90.20
2018-08-28T14:07:28.367Z,89.70
2018-08-28T14:09:56.885Z,89.90
2018-08-28T14:12:25.410Z,89.10
2018-08-28T14:14:53.967Z,87.80
2018-08-28T14:17:22.408Z,87.40
2018-08-28T14:19:51.119Z,87.80
2018-08-28T14:22:19.623Z,86.80
2018-08-28T14:24:48.078Z,87.80
2018-08-28T14:27:16.670Z,88.60
2018-08-28T14:29:45.166Z,87.10
2018-08-28T14:32:13.842Z,88.00
2018-08-28T14:34:42.443Z,87.70
2018-08-28T14:37:10.909Z,87.30
2018-08-28T14:39:39.354Z,86.60
2018-08-28T14:42:08.015Z,88.10
2018-08-28T14:44:36.503Z,89.30
2018-08-28T14:47:05.134Z,89.40
2018-08-28T14:49:33.654Z,89.40
2018-08-28T14:52:02.179Z,88.90
2018-08-28T14:54:30.823Z,88.10
2018-08-28T14:56:59.343Z,88.30
2018-08-28T14:59:27.834Z,90.10
2018-08-28T15:01:56.312Z,90.60
2018-08-28T15:04:24.816Z,90.70
2018-08-28T15:06:53.320Z,91.30
2018-08-28T15:09:21.698Z,91.30
2018-08-28T15:11:50.218Z,90.90
2018-08-28T15:14:18.678Z,90.10
2018-08-28T15:16:47.361Z,90.70
2018-08-28T15:19:15.665Z,90.80
2018-08-28T15:21:45.070Z,90.20
2018-08-28T15:24:13.490Z,90.70
2018-08-28T15:26:42.009Z,90.20
2018-08-28T15:29:10.442Z,90.10
2018-08-28T15:31:38.930Z,90.90
2018-08-28T15:34:07.481Z,91.50
2018-08-28T15:36:35.927Z,91.50
2018-08-28T15:39:05.142Z,91.10
2018-08-28T15:41:33.663Z,91.10
2018-08-28T15:44:02.194Z,91.00
2018-08-28T15:46:30.711Z,90.50
2018-08-28T15:48:59.222Z,90.50
2018-08-28T15:51:27.974Z,91.00
2018-08-28T15:53:56.354Z,91.40
2018-08-28T15:56:25.138Z,91.30
2018-08-28T15:58:53.875Z,91.50
2018-08-28T16:01:22.360Z,92.00
2018-08-28T16:03:50.914Z,91.00
2018-08-28T16:06:19.459Z,90.30
2018-08-28T16:08:48.087Z,90.90
2018-08-28T16:11:16.598Z,90.80
2018-08-28T16:13:45.076Z,91.10
2018-08-28T16:16:13.544Z,91.40
2018-08-28T16:18:42.047Z,91.40
2018-08-28T16:21:10.534Z,91.90
2018-08-28T16:23:42.349Z,92.40
2018-08-28T16:26:10.830Z,93.00
2018-08-28T16:28:39.337Z,93.10
2018-08-28T16:31:07.853Z,93.40
2018-08-28T16:33:36.510Z,93.60
2018-08-28T16:36:05.079Z,94.50
2018-08-28T16:38:33.639Z,95.70
2018-08-28T16:41:02.290Z,97.10
2018-08-28T16:43:30.722Z,98.00
2018-08-28T16:45:59.230Z,99.00
2018-08-28T16:48:27.768Z,99.90
2018-08-28T16:50:56.238Z,99.90
2018-08-28T16:53:24.735Z,99.90
2018-08-28T16:55:53.280Z,99.90
2018-08-28T16:58:21.680Z,99.90
2018-08-28T17:00:50.152Z,99.90
2018-08-28T17:03:18.690Z,99.90
2018-08-28T17:05:47.154Z,99.90
2018-08-28T17:08:15.639Z,99.90
2018-08-28T17:10:44.442Z,99.90
2018-08-28T17:13:12.891Z,99.90
2018-08-28T17:15:41.338Z,99.90
2018-08-28T17:18:09.877Z,99.90
2018-08-28T17:20:38.337Z,99.90
2018-08-28T17:23:06.803Z,99.90
2018-08-28T17:25:35.357Z,99.90
2018-08-28T17:28:03.931Z,99.90
2018-08-28T17:30:32.392Z,99.90
2018-08-28T17:33:00.879Z,99.90
2018-08-28T17:35:29.327Z,99.90
2018-08-28T17:37:57.782Z,99.90
2018-08-28T17:40:26.278Z,99.90
2018-08-28T17:42:54.730Z,99.90
2018-08-28T17:45:23.166Z,99.90
2018-08-28T17:47:51.795Z,99.90
2018-08-28T17:50:20.259Z,99.90
2018-08-28T17:52:48.737Z,99.90
2018-08-28T17:55:17.224Z,99.90
2018-08-28T17:57:45.722Z,99.90
2018-08-28T18:00:14.219Z,99.90
2018-08-28T18:02:42.725Z,99.90
2018-08-28T18:05:11.230Z,99.90
2018-08-28T18:07:39.710Z,99.90
2018-08-28T18:10:08.219Z,99.90
2018-08-28T18:12:36.704Z,99.90
2018-08-28T18:15:05.524Z,99.90
2018-08-28T18:17:34.068Z,99.90
2018-08-28T18:20:02.572Z,99.90
2018-08-28T18:22:31.118Z,99.90
2018-08-28T18:24:59.966Z,99.90
2018-08-28T18:27:28.470Z,99.90
2018-08-28T18:29:57.018Z,99.90
2018-08-28T18:32:25.750Z,99.90
2018-08-28T18:34:54.206Z,99.90
2018-08-28T18:37:24.079Z,99.90
2018-08-28T18:39:52.588Z,99.90
2018-08-28T18:42:21.572Z,99.90
2018-08-28T18:44:50.006Z,99.90
2018-08-28T18:47:18.554Z,99.90
2018-08-28T18:49:47.039Z,99.90
2018-08-28T18:52:15.566Z,99.90
2018-08-28T18:54:44.071Z,99.90
2018-08-28T18:57:12.590Z,99.90
2018-08-28T18:59:41.262Z,99.90
2018-08-28T19:02:09.802Z,99.90
2018-08-28T19:04:38.388Z,99.90
2018-08-28T19:07:06.912Z,99.90
2018-08-28T19:09:37.751Z,99.90
2018-08-28T19:12:06.252Z,99.90
2018-08-28T19:14:34.853Z,99.90
2018-08-28T19:17:03.350Z,99.90
2018-08-28T19:19:31.850Z,99.90
2018-08-28T19:22:00.317Z,99.90
2018-08-28T19:24:28.875Z,99.90
2018-08-28T19:26:57.423Z,99.90
2018-08-28T19:29:25.933Z,99.90
2018-08-28T19:31:54.564Z,99.90
2018-08-28T19:34:22.930Z,99.90
2018-08-28T19:36:51.399Z,99.90
2018-08-28T19:39:29.315Z,99.90
2018-08-28T19:42:04.787Z,99.90
2018-08-28T19:44:46.323Z,99.90
2018-08-28T19:47:22.699Z,99.90
2018-08-28T19:49:55.019Z,99.90
2018-08-28T19:52:23.381Z,99.90
2018-08-28T19:54:51.831Z,99.90
2018-08-28T19:57:20.410Z,99.90
2018-08-28T19:59:48.866Z,99.90
2018-08-28T20:02:17.301Z,99.90
2018-08-28T20:04:45.789Z,99.90
2018-08-28T20:07:14.330Z,99.90
2018-08-28T20:09:42.830Z,99.90
2018-08-28T20:12:11.338Z,99.90
2018-08-28T20:14:40.666Z,99.90
2018-08-28T20:17:09.109Z,99.90
2018-08-28T20:19:37.630Z,99.90
2018-08-28T20:22:08.990Z,99.90
2018-08-28T20:24:37.435Z,99.90
2018-08-28T20:27:06.339Z,99.90
2018-08-28T20:29:34.810Z,99.90
2018-08-28T20:32:03.299Z,99.90
2018-08-28T20:34:31.721Z,99.90
2018-08-28T20:37:00.126Z,99.90
2018-08-28T20:39:28.575Z,99.90
2018-08-28T20:42:00.619Z,99.90
2018-08-28T20:44:29.370Z,99.90
2018-08-28T20:46:57.928Z,99.90
2018-08-28T20:49:26.433Z,99.90
2018-08-28T20:51:54.966Z,99.90
2018-08-28T20:54:23.478Z,99.90
2018-08-28T20:56:52.117Z,99.90
2018-08-28T20:59:20.762Z,99.90
2018-08-28T21:01:49.219Z,99.90
2018-08-28T21:04:17.690Z,99.90
2018-08-28T21:06:46.175Z,99.90
2018-08-28T21:09:14.665Z,99.90
2018-08-28T21:11:43.547Z,99.90
2018-08-28T21:14:12.071Z,99.90
2018-08-28T21:16:40.534Z,99.90
2018-08-28T21:19:09.162Z,99.90
2018-08-28T21:21:37.669Z,99.90
2018-08-28T21:24:06.451Z,99.90
2018-08-28T21:26:34.937Z,99.90
2018-08-28T21:29:05.470Z,99.90
2018-08-28T21:31:33.887Z,99.90
2018-08-28T21:34:02.438Z,99.90
2018-08-28T21:36:30.954Z,99.90
2018-08-28T21:38:59.474Z,99.90
2018-08-28T21:41:28.070Z,99.90
2018-08-28T21:43:56.546Z,99.90
2018-08-28T21:46:25.422Z,99.90
2018-08-28T21:48:54.591Z,99.90
2018-08-28T21:51:23.045Z,99.90
2018-08-28T21:53:51.518Z,99.90
2018-08-28T21:56:20.042Z,99.90
2018-08-28T21:58:48.520Z,99.90
2018-08-28T22:01:17.027Z,99.90
2018-08-28T22:03:45.608Z,99.90
2018-08-28T22:06:19.454Z,99.90
2018-08-28T22:08:48.203Z,99.90
2018-08-28T22:11:16.890Z,99.90
2018-08-28T22:13:45.655Z,99.90
2018-08-28T22:16:14.298Z,99.90
2018-08-28T22:18:42.778Z,99.90
2018-08-28T22:21:15.038Z,99.90
2018-08-28T22:23:43.527Z,99.90
2018-08-28T22:26:12.282Z,99.90
2018-08-28T22:28:40.811Z,99.90
2018-08-28T22:31:09.311Z,99.90
2018-08-28T22:33:37.902Z,99.90
2018-08-28T22:36:07.906Z,99.90
2018-08-28T22:38:37.149Z,99.90
2018-08-28T22:41:05.731Z,99.90
2018-08-28T22:43:34.210Z,99.90
2018-08-28T22:46:02.921Z,99.90
2018-08-28T22:48:31.354Z,99.90
2018-08-28T22:50:59.865Z,99.90
2018-08-28T22:53:28.493Z,99.90
2018-08-28T22:55:56.947Z,99.90
2018-08-28T22:58:25.638Z,99.90
2018-08-28T23:00:54.091Z,99.90
2018-08-28T23:03:22.518Z,99.90
2018-08-28T23:05:51.052Z,99.90
2018-08-28T23:08:19.481Z,99.90
2018-08-28T23:10:48.343Z,99.90
2018-08-28T23:13:16.909Z,99.90
2018-08-28T23:15:45.994Z,99.90
2018-08-28T23:18:14.434Z,99.90
2018-08-28T23:20:42.950Z,99.90
2018-08-28T23:23:11.406Z,99.90
2018-08-28T23:25:39.861Z,99.90
2018-08-28T23:28:08.378Z,99.90
2018-08-28T23:30:36.878Z,99.90
2018-08-28T23:33:05.398Z,99.90
2018-08-28T23:35:33.913Z,99.90
2018-08-28T23:38:02.390Z,99.90
2018-08-28T23:40:30.838Z,99.90
2018-08-28T23:42:59.489Z,99.90
2018-08-28T23:45:27.926Z,99.90
2018-08-28T23:47:56.422Z,99.90
2018-08-28T23:50:25.008Z,99.90
2018-08-28T23:52:53.546Z,99.90
2018-08-28T23:55:21.994Z,99.90
2018-08-28T23:57:50.582Z,99.90
